Baptist Corner, Massachusetts
Current Conditions -  °F | °C
As of 8:52 AM on Tuesday 27 Jan 2015 (Local Time) from KAQW Reporting Station
Heavy Snow Heavy Snow  
Wind Chill: -5°   Ceiling: 1100
Heat Index:   Visibility: 0.25mi
Dew Point:   Wind: 10mph
Humidity: 80%   Direction: 270°W
Pressure: 29.76"   Gusts: 17mph
Location:  42.6026°N, 72.7442°W
Report Text: KAQW 271352Z AUTO 27009G15KT 1/4SM +SN VV011 M13/M16 A2976 RMK AO2 SLP092 P0003 T11281156
Loading
Personal Weather Stations






























Interactive Weather Map New forecast layout! Learn more

10-Day Weather Forecast

Advertisements
Track Severe Weather on mobile